createdAt,value
2022-08-11T00:01:28.521Z,101878.91
2022-08-11T00:03:56.896Z,101876.47
2022-08-11T00:06:29.365Z,101872.31
2022-08-11T00:08:58.408Z,101877.06
2022-08-11T00:11:53.322Z,101869.44
2022-08-11T00:14:37.260Z,101881.00
2022-08-11T00:17:09.313Z,101877.28
2022-08-11T00:20:14.326Z,101882.69
2022-08-11T00:22:41.350Z,101872.38
2022-08-11T00:25:14.442Z,101879.41
2022-08-11T00:27:42.130Z,101878.16
2022-08-11T00:30:11.317Z,101884.97
2022-08-11T00:32:44.466Z,101888.09
2022-08-11T00:35:55.151Z,101878.75
2022-08-11T00:38:07.291Z,101881.84
2022-08-11T00:41:13.116Z,101875.66
2022-08-11T00:43:49.170Z,101876.06
2022-08-11T00:46:46.728Z,101884.13
2022-08-11T00:49:30.828Z,101874.59
2022-08-11T00:52:17.917Z,101878.53
2022-08-11T00:54:57.006Z,101870.69
2022-08-11T00:57:56.062Z,101862.66
2022-08-11T01:00:27.212Z,101858.53
2022-08-11T01:03:19.082Z,101861.41
2022-08-11T01:06:27.162Z,101861.41
2022-08-11T01:09:30.525Z,101861.00
2022-08-11T01:12:42.344Z,101858.53
2022-08-11T01:16:17.736Z,101856.25
2022-08-11T01:19:12.548Z,101850.47
2022-08-11T01:22:03.941Z,101851.50
2022-08-11T01:24:42.687Z,101845.31
2022-08-11T01:27:28.301Z,101845.50
2022-08-11T01:30:24.288Z,101842.00
2022-08-11T01:33:36.564Z,101844.06
2022-08-11T01:36:12.406Z,101840.78
2022-08-11T01:38:59.866Z,101841.78
2022-08-11T01:42:03.941Z,101828.81
2022-08-11T01:44:45.879Z,101833.13
2022-08-11T01:47:52.505Z,101838.88
2022-08-11T01:50:23.512Z,101830.44
2022-08-11T01:53:01.939Z,101828.38
2022-08-11T01:55:51.154Z,101827.97
2022-08-11T01:58:39.524Z,101836.63
2022-08-11T02:01:41.200Z,101825.25
2022-08-11T02:04:34.344Z,101822.16
2022-08-11T02:07:17.793Z,101822.16
2022-08-11T02:10:22.951Z,101822.97
2022-08-11T02:13:01.179Z,101820.28
2022-08-11T02:15:45.553Z,101818.66
2022-08-11T02:18:24.010Z,101819.47
2022-08-11T02:21:26.034Z,101825.88
2022-08-11T02:24:07.247Z,101826.88
2022-08-11T02:26:49.964Z,101821.72
2022-08-11T02:29:24.766Z,101818.03
2022-08-11T02:32:29.847Z,101820.25
2022-08-11T02:35:16.241Z,101816.13
2022-08-11T02:37:56.682Z,101812.59
2022-08-11T02:40:57.210Z,101818.19
2022-08-11T02:43:37.326Z,101816.53
2022-08-11T02:46:22.186Z,101808.50
2022-08-11T02:49:17.085Z,101812.38
2022-08-11T02:52:05.513Z,101811.56
2022-08-11T02:54:50.763Z,101816.69
2022-08-11T02:57:43.697Z,101815.47
2022-08-11T03:00:16.732Z,101812.78
2022-08-11T03:03:22.351Z,101807.81
2022-08-11T03:06:03.640Z,101813.97
2022-08-11T03:08:49.579Z,101810.88
2022-08-11T03:11:44.683Z,101811.47
2022-08-11T03:14:40.088Z,101807.94
2022-08-11T03:17:16.042Z,101809.78
2022-08-11T03:20:12.911Z,101807.06
2022-08-11T03:23:03.405Z,101807.84
2022-08-11T03:25:59.167Z,101809.91
2022-08-11T03:28:42.284Z,101810.94
2022-08-11T03:31:31.332Z,101805.16
2022-08-11T03:34:22.597Z,101811.25
2022-08-11T03:37:39.319Z,101807.13
2022-08-11T03:40:46.571Z,101800.31
2022-08-11T03:43:29.650Z,101803.19
2022-08-11T03:46:45.542Z,101804.00
2022-08-11T03:49:39.348Z,101807.72
2022-08-11T03:52:20.534Z,101792.06
2022-08-11T03:55:14.287Z,101798.25
2022-08-11T03:58:14.494Z,101792.06
2022-08-11T04:01:13.031Z,101794.56
2022-08-11T04:03:49.123Z,101791.28
2022-08-11T04:06:37.850Z,101785.28
2022-08-11T04:09:29.430Z,101788.59
2022-08-11T04:12:09.484Z,101789.63
2022-08-11T04:15:42.613Z,101777.88
2022-08-11T04:18:28.098Z,101780.34
2022-08-11T04:21:42.936Z,101772.53
2022-08-11T04:24:54.373Z,101770.88
2022-08-11T04:27:36.765Z,101779.91
2022-08-11T04:30:15.113Z,101777.25
2022-08-11T04:32:59.165Z,101777.66
2022-08-11T04:35:51.167Z,101767.31
2022-08-11T04:38:55.447Z,101778.00
2022-08-11T04:42:31.006Z,101777.75
2022-08-11T04:45:31.188Z,101774.66
2022-08-11T04:48:42.457Z,101769.28
2022-08-11T04:52:07.179Z,101773.00
2022-08-11T04:55:15.447Z,101768.88
2022-08-11T04:58:31.216Z,101762.88
2022-08-11T05:01:41.631Z,101766.56
2022-08-11T05:05:16.046Z,101763.47
2022-08-11T05:08:23.832Z,101774.19
2022-08-11T05:11:15.570Z,101769.66
2022-08-11T05:14:06.805Z,101770.88
2022-08-11T05:17:13.275Z,101773.75
2022-08-11T05:20:04.473Z,101773.94
2022-08-11T05:22:50.458Z,101779.28
2022-08-11T05:26:43.829Z,101777.44
2022-08-11T05:28:59.634Z,101785.66
2022-08-11T05:31:54.021Z,101785.66
2022-08-11T05:34:47.798Z,101793.91
2022-08-11T05:37:39.347Z,101792.28
2022-08-11T05:40:28.303Z,101794.97
2022-08-11T05:43:19.628Z,101787.75
2022-08-11T05:46:17.788Z,101784.88
2022-08-11T05:49:03.822Z,101787.19
2022-08-11T05:51:55.410Z,101795.63
2022-08-11T05:54:46.170Z,101790.28
2022-08-11T05:57:48.301Z,101798.91
2022-08-11T06:00:11.030Z,101801.41
2022-08-11T06:02:47.100Z,101799.38
2022-08-11T06:05:14.500Z,101787.44
2022-08-11T06:07:48.499Z,101797.94
2022-08-11T06:10:27.387Z,101796.88
2022-08-11T06:12:56.178Z,101795.63
2022-08-11T06:15:25.528Z,101799.97
2022-08-11T06:17:54.164Z,101803.84
2022-08-11T06:20:22.798Z,101797.66
2022-08-11T06:22:59.022Z,101807.16
2022-08-11T06:25:36.043Z,101801.81
2022-08-11T06:28:08.816Z,101796.06
2022-08-11T06:30:44.369Z,101801.66
2022-08-11T06:33:19.366Z,101795.47
2022-08-11T06:35:48.666Z,101794.88
2022-08-11T06:38:39.360Z,101795.69
2022-08-11T06:41:30.730Z,101802.53
2022-08-11T06:44:14.783Z,101785.44
2022-08-11T06:46:51.350Z,101787.53
2022-08-11T06:49:42.845Z,101787.75
2022-08-11T06:52:35.633Z,101789.19
2022-08-11T06:55:56.697Z,101785.78
2022-08-11T06:58:50.223Z,101798.56
2022-08-11T07:01:27.792Z,101784.38
2022-08-11T07:04:04.841Z,101788.94
2022-08-11T07:07:34.274Z,101784.66
2022-08-11T07:10:48.880Z,101798.03
2022-08-11T07:13:44.831Z,101792.91
2022-08-11T07:16:18.623Z,101794.16
2022-08-11T07:19:16.544Z,101788.41
2022-08-11T07:22:04.759Z,101794.81
2022-08-11T07:25:11.358Z,101795.88
2022-08-11T07:28:03.461Z,101797.94
2022-08-11T07:30:34.789Z,101800.63
2022-08-11T07:33:03.934Z,101793.84
2022-08-11T07:35:35.605Z,101788.06
2022-08-11T07:38:20.641Z,101799.84
2022-08-11T07:40:51.253Z,101790.19
2022-08-11T07:43:18.185Z,101795.56
2022-08-11T07:46:05.312Z,101800.31
2022-08-11T07:48:53.504Z,101804.63
2022-08-11T07:51:39.289Z,101798.47
2022-08-11T07:54:16.625Z,101797.84
2022-08-11T07:56:55.255Z,101811.88
2022-08-11T08:00:04.258Z,101813.09
2022-08-11T08:02:51.396Z,101800.88
2022-08-11T08:05:37.454Z,101805.22
2022-08-11T08:08:25.586Z,101798.41
2022-08-11T08:11:13.371Z,101806.25
2022-08-11T08:13:59.942Z,101799.66
2022-08-11T08:16:45.492Z,101802.94
2022-08-11T08:19:16.690Z,101805.41
2022-08-11T08:21:45.710Z,101800.03
2022-08-11T08:24:13.343Z,101802.53
2022-08-11T08:27:01.266Z,101813.03
2022-08-11T08:29:50.312Z,101811.59
2022-08-11T08:32:18.660Z,101812.41
2022-08-11T08:34:46.720Z,101805.41
2022-08-11T08:37:15.668Z,101804.34
2022-08-11T08:40:01.853Z,101805.34
2022-08-11T08:42:32.160Z,101798.56
2022-08-11T08:45:12.110Z,101802.66
2022-08-11T08:47:43.482Z,101806.34
2022-08-11T08:50:16.591Z,101810.06
2022-08-11T08:52:52.567Z,101795.56
2022-08-11T08:55:21.114Z,101796.81
2022-08-11T08:57:50.862Z,101797.22
2022-08-11T09:00:23.166Z,101800.91
2022-08-11T09:02:50.876Z,101790.53
2022-08-11T09:05:19.525Z,101796.72
2022-08-11T09:07:51.393Z,101794.19
2022-08-11T09:10:20.206Z,101784.00
2022-08-11T09:12:48.487Z,101776.13
2022-08-11T09:15:19.842Z,101777.72
2022-08-11T09:18:03.818Z,101784.03
2022-08-11T09:20:36.194Z,101779.03
2022-08-11T09:26:30.304Z,101780.22
2022-08-11T09:28:59.313Z,101780.72
2022-08-11T09:31:27.174Z,101788.66
2022-08-11T09:33:55.638Z,101778.00
2022-08-11T09:36:41.749Z,101779.03
2022-08-11T09:39:31.123Z,101774.34
2022-08-11T09:42:03.426Z,101773.78
2022-08-11T09:44:49.210Z,101769.25
2022-08-11T09:47:29.041Z,101770.97
2022-08-11T09:50:01.308Z,101777.13
2022-08-11T09:52:57.143Z,101772.09
2022-08-11T09:55:28.284Z,101768.25
2022-08-11T09:58:42.991Z,101763.34
2022-08-11T10:01:02.871Z,101759.28
2022-08-11T10:03:33.257Z,101748.75
2022-08-11T10:06:33.235Z,101756.03
2022-08-11T10:09:06.471Z,101757.06
2022-08-11T10:11:36.830Z,101752.44
2022-08-11T10:14:33.946Z,101751.84
2022-08-11T10:17:06.626Z,101740.47
2022-08-11T10:19:37.004Z,101749.28
2022-08-11T10:22:24.678Z,101745.25
2022-08-11T10:25:19.801Z,101744.53
2022-08-11T10:28:28.200Z,101743.34
2022-08-11T10:30:56.286Z,101744.19
2022-08-11T10:33:57.571Z,101737.81
2022-08-11T10:36:28.874Z,101737.72
2022-08-11T10:38:57.909Z,101741.03
2022-08-11T10:42:07.746Z,101742.28
2022-08-11T10:44:57.761Z,101731.34
2022-08-11T10:47:35.111Z,101741.06
2022-08-11T10:50:28.119Z,101729.16
2022-08-11T10:53:16.502Z,101730.00
2022-08-11T10:58:52.527Z,101725.84
2022-08-11T11:01:32.747Z,101717.22
2022-08-11T11:04:07.925Z,101711.59
2022-08-11T11:06:52.729Z,101713.56
2022-08-11T11:09:32.673Z,101710.75
2022-08-11T11:12:29.834Z,101710.31
2022-08-11T11:15:20.412Z,101719.34
2022-08-11T11:18:02.347Z,101721.09
2022-08-11T11:20:49.325Z,101716.34
2022-08-11T11:23:42.002Z,101721.84
2022-08-11T11:26:28.020Z,101710.03
2022-08-11T11:29:13.406Z,101713.56
2022-08-11T11:31:51.866Z,101700.59
2022-08-11T11:34:53.288Z,101706.34
2022-08-11T11:37:23.191Z,101705.13
2022-08-11T11:39:50.836Z,101704.38
2022-08-11T11:42:18.888Z,101702.41
2022-08-11T11:44:48.086Z,101701.94
2022-08-11T11:47:18.335Z,101694.13
2022-08-11T11:49:46.222Z,101696.91
2022-08-11T11:52:19.295Z,101692.97
2022-08-11T11:54:51.231Z,101694.84
2022-08-11T11:57:39.215Z,101686.72
2022-08-11T12:00:32.889Z,101685.97
2022-08-11T12:03:03.940Z,101690.38
2022-08-11T12:05:34.059Z,101686.09
2022-08-11T12:08:18.163Z,101678.03
2022-08-11T12:11:11.282Z,101678.41
2022-08-11T12:13:43.865Z,101673.00
2022-08-11T12:16:34.518Z,101666.00
2022-08-11T12:19:03.776Z,101663.13
2022-08-11T12:21:31.186Z,101670.00
2022-08-11T12:24:19.769Z,101660.22
2022-08-11T12:27:14.989Z,101660.00
2022-08-11T12:29:41.250Z,101654.81
2022-08-11T12:32:11.591Z,101653.81
2022-08-11T12:34:38.648Z,101646.22
2022-08-11T12:37:13.084Z,101644.09
2022-08-11T12:40:15.977Z,101645.44
2022-08-11T12:43:21.112Z,101642.78
2022-08-11T12:45:54.342Z,101635.19
2022-08-11T12:49:00.765Z,101631.91
2022-08-11T12:52:11.245Z,101629.25
2022-08-11T12:54:59.198Z,101623.63
2022-08-11T12:57:54.361Z,101619.06
2022-08-11T13:00:41.023Z,101621.00
2022-08-11T13:03:28.625Z,101613.50
2022-08-11T13:05:59.174Z,101612.91
2022-08-11T13:08:28.102Z,101603.13
2022-08-11T13:11:16.035Z,101610.78
2022-08-11T13:13:54.215Z,101614.34
2022-08-11T13:16:29.495Z,101611.97
2022-08-11T13:18:59.082Z,101606.28
2022-08-11T13:21:27.720Z,101602.81
2022-08-11T13:24:00.537Z,101604.16
2022-08-11T13:26:46.759Z,101598.25
2022-08-11T13:29:25.541Z,101598.53
2022-08-11T13:31:56.271Z,101587.66
2022-08-11T13:34:27.037Z,101590.94
2022-08-11T13:36:57.236Z,101588.53
2022-08-11T13:39:26.650Z,101594.53
2022-08-11T13:41:59.655Z,101589.72
2022-08-11T13:44:30.351Z,101586.22
2022-08-11T13:47:04.399Z,101586.50
2022-08-11T13:49:35.121Z,101579.47
2022-08-11T13:52:03.911Z,101592.75
2022-08-11T13:54:35.034Z,101583.53
2022-08-11T13:57:08.989Z,101582.72
2022-08-11T13:59:49.969Z,101587.31
2022-08-11T14:02:31.006Z,101589.50
2022-08-11T14:05:13.343Z,101588.94
2022-08-11T14:07:45.826Z,101582.13
2022-08-11T14:10:14.958Z,101582.63
2022-08-11T14:13:17.929Z,101574.50
2022-08-11T14:15:48.422Z,101580.75
2022-08-11T14:18:21.953Z,101583.72
2022-08-11T14:21:11.555Z,101577.22
2022-08-11T14:23:41.800Z,101578.28
2022-08-11T14:26:29.255Z,101570.16
2022-08-11T14:32:10.206Z,101559.28
2022-08-11T14:34:41.366Z,101575.84
2022-08-11T14:37:19.112Z,101567.44
2022-08-11T14:39:50.879Z,101565.28
2022-08-11T14:42:38.363Z,101563.66
2022-08-11T14:45:57.699Z,101568.81
2022-08-11T14:48:23.917Z,101556.31
2022-08-11T14:50:51.119Z,101555.75
2022-08-11T14:53:18.956Z,101557.41
2022-08-11T14:56:15.929Z,101549.53
2022-08-11T14:58:43.634Z,101547.91
2022-08-11T15:01:30.993Z,101549.25
2022-08-11T15:04:27.388Z,101538.97
2022-08-11T15:06:48.213Z,101550.31
2022-08-11T15:09:16.086Z,101554.41
2022-08-11T15:12:03.618Z,101547.06
2022-08-11T15:14:49.177Z,101553.31
2022-08-11T15:17:23.309Z,101540.81
2022-08-11T15:20:16.207Z,101544.34
2022-08-11T15:23:01.809Z,101549.50
2022-08-11T15:25:31.136Z,101539.16
2022-08-11T15:28:18.644Z,101529.91
2022-08-11T15:31:05.718Z,101528.25
2022-08-11T15:33:54.428Z,101541.59
2022-08-11T15:36:41.099Z,101538.03
2022-08-11T15:39:19.518Z,101535.34
2022-08-11T15:42:20.544Z,101539.66
2022-08-11T15:45:19.636Z,101527.69
2022-08-11T15:48:05.029Z,101536.09
2022-08-11T15:50:34.817Z,101530.41
2022-08-11T15:53:14.403Z,101527.94
2022-08-11T15:55:43.810Z,101536.09
2022-08-11T15:58:32.458Z,101527.38
2022-08-11T16:01:20.568Z,101537.69
2022-08-11T16:04:13.994Z,101528.72
2022-08-11T16:07:03.701Z,101530.06
2022-08-11T16:09:48.078Z,101523.28
2022-08-11T16:12:23.377Z,101514.81
2022-08-11T16:15:14.934Z,101519.41
2022-08-11T16:17:57.889Z,101512.34
2022-08-11T16:20:27.182Z,101517.53
2022-08-11T16:23:02.009Z,101509.06
2022-08-11T16:27:03.733Z,101517.78
2022-08-11T16:28:21.912Z,101513.19
2022-08-11T16:30:51.258Z,101520.25
2022-08-11T16:33:48.646Z,101515.88
2022-08-11T16:36:28.056Z,101516.13
2022-08-11T16:38:57.100Z,101513.13
2022-08-11T16:41:46.433Z,101514.22
2022-08-11T16:44:37.686Z,101498.44
2022-08-11T16:47:12.369Z,101506.56
2022-08-11T16:49:50.638Z,101505.78
2022-08-11T16:52:20.854Z,101508.50
2022-08-11T16:54:47.971Z,101502.75
2022-08-11T16:57:50.356Z,101487.56
2022-08-11T17:00:17.764Z,101491.88
2022-08-11T17:03:15.589Z,101492.94
2022-08-11T17:06:07.890Z,101492.16
2022-08-11T17:09:07.533Z,101483.44
2022-08-11T17:12:14.872Z,101486.41
2022-08-11T17:14:50.993Z,101488.00
2022-08-11T17:17:39.097Z,101482.84
2022-08-11T17:20:40.620Z,101480.13
2022-08-11T17:23:16.510Z,101479.59
2022-08-11T17:25:59.591Z,101475.22
2022-08-11T17:28:32.340Z,101475.47
2022-08-11T17:31:22.343Z,101479.78
2022-08-11T17:34:14.788Z,101469.47
2022-08-11T17:36:45.854Z,101462.41
2022-08-11T17:39:14.783Z,101472.16
2022-08-11T17:42:02.279Z,101472.41
2022-08-11T17:44:50.983Z,101469.13
2022-08-11T17:47:38.824Z,101473.72
2022-08-11T17:50:09.215Z,101477.78
2022-08-11T17:53:03.592Z,101475.59
2022-08-11T17:55:53.629Z,101464.75
2022-08-11T17:58:40.642Z,101473.13
2022-08-11T18:01:11.100Z,101471.50
2022-08-11T18:03:40.903Z,101470.34
2022-08-11T18:06:12.915Z,101468.69
2022-08-11T18:09:02.388Z,101474.38
2022-08-11T18:12:06.881Z,101467.59
2022-08-11T18:14:58.629Z,101466.47
2022-08-11T18:17:44.269Z,101467.78
2022-08-11T18:20:29.903Z,101465.84
2022-08-11T18:23:16.937Z,101466.38
2022-08-11T18:26:07.041Z,101466.63
2022-08-11T18:29:02.055Z,101471.75
2022-08-11T18:31:50.098Z,101474.69
2022-08-11T18:34:39.216Z,101470.03
2022-08-11T18:37:34.278Z,101486.78
2022-08-11T18:40:26.244Z,101481.06
2022-08-11T18:43:16.491Z,101487.25
2022-08-11T18:46:06.496Z,101483.66
2022-08-11T18:48:57.865Z,101489.31
2022-08-11T18:51:45.504Z,101485.25
2022-08-11T18:54:32.574Z,101493.84
2022-08-11T18:57:22.132Z,101486.75
2022-08-11T19:00:10.326Z,101496.41
2022-08-11T19:02:58.513Z,101495.03
2022-08-11T19:06:33.713Z,101498.28
2022-08-11T19:08:58.429Z,101496.28
2022-08-11T19:11:45.446Z,101499.50
2022-08-11T19:14:32.182Z,101502.16
2022-08-11T19:17:43.564Z,101499.13
2022-08-11T19:20:35.385Z,101510.97
2022-08-11T19:23:24.611Z,101514.66
2022-08-11T19:26:10.593Z,101509.75
2022-08-11T19:28:58.314Z,101512.13
2022-08-11T19:31:45.314Z,101513.69
2022-08-11T19:34:37.550Z,101512.56
2022-08-11T19:37:25.849Z,101516.31
2022-08-11T19:40:22.709Z,101520.59
2022-08-11T19:43:14.768Z,101518.59
2022-08-11T19:46:14.072Z,101521.00
2022-08-11T19:49:02.247Z,101533.34
2022-08-11T19:51:54.639Z,101530.31
2022-08-11T19:54:47.979Z,101533.25
2022-08-11T19:57:39.525Z,101541.28
2022-08-11T20:00:30.469Z,101534.75
2022-08-11T20:03:18.275Z,101537.94
2022-08-11T20:06:05.916Z,101542.78
2022-08-11T20:08:58.184Z,101532.19
2022-08-11T20:11:44.891Z,101543.50
2022-08-11T20:14:33.322Z,101540.72
2022-08-11T20:17:20.914Z,101542.84
2022-08-11T20:20:08.519Z,101543.34
2022-08-11T20:22:54.238Z,101546.53
2022-08-11T20:25:42.560Z,101552.19
2022-08-11T20:28:39.651Z,101555.94
2022-08-11T20:31:27.624Z,101550.44
2022-08-11T20:34:14.883Z,101545.53
2022-08-11T20:37:03.011Z,101543.53
2022-08-11T20:39:50.720Z,101552.38
2022-08-11T20:42:37.422Z,101558.84
2022-08-11T20:45:33.725Z,101560.38
2022-08-11T20:48:21.413Z,101560.63
2022-08-11T20:51:09.571Z,101564.59
2022-08-11T20:54:05.718Z,101564.28
2022-08-11T20:56:53.595Z,101569.91
2022-08-11T20:59:50.155Z,101565.25
2022-08-11T21:02:44.366Z,101570.91
2022-08-11T21:06:08.468Z,101569.72
2022-08-11T21:08:53.881Z,101579.38
2022-08-11T21:11:41.516Z,101570.94
2022-08-11T21:14:32.179Z,101572.22
2022-08-11T21:17:27.565Z,101575.19
2022-08-11T21:20:20.703Z,101579.16
2022-08-11T21:23:10.021Z,101580.47
2022-08-11T21:26:09.409Z,101572.50
2022-08-11T21:28:58.379Z,101579.91
2022-08-11T21:31:45.487Z,101578.16
2022-08-11T21:34:34.633Z,101573.69
2022-08-11T21:37:23.305Z,101581.41
2022-08-11T21:40:16.808Z,101582.97
2022-08-11T21:43:05.655Z,101584.50
2022-08-11T21:45:54.192Z,101577.94
2022-08-11T21:48:40.250Z,101582.50
2022-08-11T21:51:25.899Z,101583.78
2022-08-11T21:54:11.935Z,101581.34
2022-08-11T21:56:59.021Z,101590.72
2022-08-11T22:00:00.995Z,101578.53
2022-08-11T22:02:49.017Z,101591.66
2022-08-11T22:05:39.868Z,101585.09
2022-08-11T22:08:26.519Z,101582.88
2022-08-11T22:11:12.183Z,101590.59
2022-08-11T22:14:06.313Z,101591.69
2022-08-11T22:16:54.017Z,101590.47
2022-08-11T22:19:40.523Z,101580.16
2022-08-11T22:22:27.347Z,101584.16
2022-08-11T22:25:16.310Z,101585.22
2022-08-11T22:28:03.765Z,101587.91
2022-08-11T22:30:49.439Z,101582.97
2022-08-11T22:33:36.601Z,101574.06
2022-08-11T22:36:42.365Z,101585.09
2022-08-11T22:39:29.529Z,101582.63
2022-08-11T22:42:24.085Z,101579.56
2022-08-11T22:45:19.529Z,101580.47
2022-08-11T22:48:06.516Z,101584.44
2022-08-11T22:50:53.696Z,101593.00
2022-08-11T22:53:57.214Z,101591.84
2022-08-11T22:56:45.502Z,101593.09
2022-08-11T22:59:31.569Z,101596.41
2022-08-11T23:02:17.154Z,101590.66
2022-08-11T23:05:15.098Z,101590.28
2022-08-11T23:08:01.354Z,101589.09
2022-08-11T23:10:47.432Z,101591.66
2022-08-11T23:13:32.967Z,101585.94
2022-08-11T23:16:19.168Z,101584.97
2022-08-11T23:19:05.625Z,101592.09
2022-08-11T23:21:52.921Z,101588.44
2022-08-11T23:24:40.074Z,101589.34
2022-08-11T23:27:28.041Z,101593.78
2022-08-11T23:30:16.982Z,101595.06
2022-08-11T23:33:07.084Z,101603.34
2022-08-11T23:35:57.882Z,101598.22
2022-08-11T23:38:47.001Z,101603.22
2022-08-11T23:41:34.209Z,101602.84
2022-08-11T23:44:20.816Z,101604.94
2022-08-11T23:47:09.411Z,101595.25
2022-08-11T23:49:55.968Z,101590.50
2022-08-11T23:52:44.462Z,101595.31
2022-08-11T23:55:34.027Z,101583.38
2022-08-11T23:58:19.622Z,101585.44
